createdAt,value
2018-04-30T00:02:09.456Z,5.83
2018-04-30T00:04:37.108Z,7.90
2018-04-30T00:07:04.754Z,6.60
2018-04-30T00:09:32.421Z,9.80
2018-04-30T00:12:00.101Z,8.20
2018-04-30T00:14:28.495Z,7.73
2018-04-30T00:16:56.918Z,10.40
2018-04-30T00:19:24.553Z,9.23
2018-04-30T00:21:52.205Z,8.27
2018-04-30T00:24:19.898Z,7.40
2018-04-30T00:26:47.538Z,8.23
2018-04-30T00:29:15.938Z,8.17
2018-04-30T00:31:43.568Z,7.53
2018-04-30T00:34:11.286Z,7.53
2018-04-30T00:36:38.942Z,9.33
2018-04-30T00:39:06.582Z,13.23
2018-04-30T00:41:34.659Z,7.57
2018-04-30T00:44:02.303Z,7.47
2018-04-30T00:46:32.357Z,8.27
2018-04-30T00:49:02.294Z,10.67
2018-04-30T00:51:30.692Z,8.50
2018-04-30T00:53:59.157Z,8.37
2018-04-30T00:56:26.778Z,6.10
2018-04-30T00:58:55.190Z,7.30
2018-04-30T01:01:23.614Z,7.73
2018-04-30T01:03:51.310Z,11.37
2018-04-30T01:06:18.964Z,7.70
2018-04-30T01:08:47.390Z,9.27
2018-04-30T01:11:15.054Z,9.70
2018-04-30T01:13:46.649Z,7.83
2018-04-30T01:16:15.111Z,9.07
2018-04-30T01:18:42.726Z,7.37
2018-04-30T01:21:11.794Z,7.53
2018-04-30T01:23:39.427Z,8.73
2018-04-30T01:26:07.069Z,8.27
2018-04-30T01:28:34.679Z,9.90
2018-04-30T01:31:02.465Z,7.73
2018-04-30T01:33:30.086Z,11.13
2018-04-30T01:35:57.751Z,7.23
2018-04-30T01:38:25.387Z,7.10
2018-04-30T01:40:54.088Z,7.37
2018-04-30T01:43:21.778Z,6.63
2018-04-30T01:45:49.398Z,6.70
2018-04-30T01:48:17.087Z,5.53
2018-04-30T01:50:44.740Z,7.03
2018-04-30T01:53:12.427Z,7.20
2018-04-30T01:55:40.053Z,5.50
2018-04-30T01:58:07.688Z,5.13
2018-04-30T02:00:35.358Z,8.10
2018-04-30T02:03:03.088Z,8.73
2018-04-30T02:05:31.519Z,10.60
2018-04-30T02:07:59.176Z,10.13
2018-04-30T02:10:27.602Z,5.60
2018-04-30T02:12:55.213Z,7.40
2018-04-30T02:15:22.859Z,8.50
2018-04-30T02:17:51.244Z,9.40
2018-04-30T02:20:18.985Z,7.77
2018-04-30T02:31:38.944Z,6.80
2018-04-30T02:34:06.603Z,5.23
2018-04-30T02:36:34.757Z,6.00
2018-04-30T02:39:02.433Z,6.47
2018-04-30T02:41:30.089Z,6.17
2018-04-30T02:43:57.762Z,6.10
2018-04-30T02:46:26.148Z,5.50
2018-04-30T02:48:53.798Z,3.27
2018-04-30T02:51:21.445Z,3.20
2018-04-30T02:53:49.895Z,2.70
2018-04-30T02:56:17.571Z,3.10
2018-04-30T02:58:45.226Z,6.30
2018-04-30T03:01:13.678Z,1.97
2018-04-30T03:03:41.309Z,4.53
2018-04-30T03:06:08.967Z,2.53
2018-04-30T03:08:36.603Z,3.93
2018-04-30T03:11:04.289Z,2.23
2018-04-30T03:13:31.921Z,4.03
2018-04-30T03:15:59.683Z,2.40
2018-04-30T03:18:27.309Z,3.73
2018-04-30T03:20:54.942Z,1.50
2018-04-30T03:23:22.609Z,3.47
2018-04-30T03:25:51.014Z,1.50
2018-04-30T03:28:18.649Z,1.27
2018-04-30T03:30:46.582Z,1.53
2018-04-30T03:33:15.409Z,3.07
2018-04-30T03:35:43.058Z,2.07
2018-04-30T03:38:10.710Z,2.67
2018-04-30T03:40:38.354Z,3.10
2018-04-30T03:43:06.133Z,2.20
2018-04-30T03:45:33.695Z,1.60
2018-04-30T03:48:01.369Z,0.57
2018-04-30T03:50:50.407Z,1.33
2018-04-30T03:53:18.102Z,2.00
2018-04-30T03:55:45.757Z,0.83
2018-04-30T03:58:14.200Z,3.30
2018-04-30T04:00:53.757Z,4.73
2018-04-30T04:03:33.466Z,1.27
2018-04-30T04:06:13.109Z,2.03
2018-04-30T04:08:40.829Z,1.37
2018-04-30T04:11:08.498Z,1.33
2018-04-30T04:13:36.119Z,2.27
2018-04-30T04:16:03.813Z,1.90
2018-04-30T04:18:31.405Z,1.87
2018-04-30T04:20:59.805Z,1.83
2018-04-30T04:23:27.410Z,1.57
2018-04-30T04:25:55.854Z,1.37
2018-04-30T04:28:24.269Z,1.37
2018-04-30T04:30:51.866Z,0.77
2018-04-30T04:33:19.517Z,1.13
2018-04-30T04:35:47.129Z,0.80
2018-04-30T04:38:14.782Z,1.40
2018-04-30T04:40:42.406Z,1.30
2018-04-30T04:43:10.070Z,0.73
2018-04-30T04:45:37.718Z,3.30
2018-04-30T04:48:06.193Z,1.37
2018-04-30T04:50:33.850Z,3.23
2018-04-30T04:53:01.483Z,4.10
2018-04-30T04:55:29.914Z,0.83
2018-04-30T04:57:57.559Z,1.63
2018-04-30T05:00:25.238Z,4.27
2018-04-30T05:02:52.844Z,1.07
2018-04-30T05:05:20.514Z,1.23
2018-04-30T05:07:48.146Z,1.73
2018-04-30T05:10:15.818Z,1.23
2018-04-30T05:12:43.506Z,2.17
2018-04-30T05:15:11.306Z,0.83
2018-04-30T05:17:39.013Z,2.10
2018-04-30T05:20:06.672Z,1.17
2018-04-30T05:22:35.681Z,2.20
2018-04-30T05:25:03.433Z,0.97
2018-04-30T05:27:31.767Z,4.70
2018-04-30T05:30:00.313Z,0.67
2018-04-30T05:32:27.981Z,2.10
2018-04-30T05:34:56.419Z,2.77
2018-04-30T05:37:24.056Z,0.50
2018-04-30T05:39:51.769Z,1.10
2018-04-30T05:42:19.393Z,1.87
2018-04-30T05:44:47.081Z,3.87
2018-04-30T05:47:14.777Z,0.80
2018-04-30T05:49:42.470Z,0.90
2018-04-30T05:52:10.885Z,2.57
2018-04-30T05:54:38.764Z,1.50
2018-04-30T05:57:07.153Z,1.83
2018-04-30T05:59:34.814Z,0.87
2018-04-30T06:02:02.469Z,2.93
2018-04-30T06:04:30.109Z,0.50
2018-04-30T06:06:57.793Z,1.07
2018-04-30T06:09:25.438Z,3.30
2018-04-30T06:11:53.849Z,2.30
2018-04-30T06:14:22.305Z,2.50
2018-04-30T06:16:50.785Z,1.03
2018-04-30T06:19:18.413Z,1.47
2018-04-30T06:21:46.071Z,0.63
2018-04-30T06:24:13.733Z,2.70
2018-04-30T06:26:41.488Z,1.00
2018-04-30T06:29:09.065Z,0.93
2018-04-30T06:31:36.809Z,0.73
2018-04-30T06:34:05.308Z,0.50
2018-04-30T06:36:33.717Z,2.37
2018-04-30T06:39:02.171Z,1.00
2018-04-30T06:41:29.805Z,1.03
2018-04-30T06:43:58.232Z,0.20
2018-04-30T06:46:25.942Z,0.73
2018-04-30T06:48:53.577Z,1.27
2018-04-30T06:51:21.261Z,2.37
2018-04-30T06:53:48.905Z,0.57
2018-04-30T06:56:16.580Z,2.07
2018-04-30T06:58:44.274Z,0.10
2018-04-30T07:01:11.949Z,0.93
2018-04-30T07:03:39.582Z,2.13
2018-04-30T07:06:07.288Z,0.40
2018-04-30T07:08:35.678Z,0.67
2018-04-30T07:11:03.387Z,0.50
2018-04-30T07:13:31.021Z,1.57
2018-04-30T07:15:58.682Z,1.23
2018-04-30T07:18:26.348Z,0.87
2018-04-30T07:20:54.756Z,1.40
2018-04-30T07:23:23.187Z,1.13
2018-04-30T07:25:50.850Z,0.77
2018-04-30T07:28:19.305Z,0.67
2018-04-30T07:30:46.942Z,0.40
2018-04-30T07:33:15.474Z,0.57
2018-04-30T07:35:43.066Z,0.73
2018-04-30T07:38:10.699Z,1.37
2018-04-30T07:40:38.326Z,0.50
2018-04-30T07:43:05.922Z,1.90
2018-04-30T07:45:33.574Z,0.40
2018-04-30T07:48:01.961Z,2.43
2018-04-30T07:50:29.598Z,5.80
2018-04-30T07:52:57.249Z,1.20
2018-04-30T07:55:24.925Z,1.70
2018-04-30T07:57:52.546Z,1.03
2018-04-30T08:00:20.210Z,1.57
2018-04-30T08:02:48.646Z,0.90
2018-04-30T08:05:16.298Z,0.90
2018-04-30T08:07:43.970Z,1.20
2018-04-30T08:10:11.606Z,2.03
2018-04-30T08:12:39.289Z,0.73
2018-04-30T08:15:06.929Z,1.80
2018-04-30T08:17:34.581Z,1.37
2018-04-30T08:20:02.203Z,0.77
2018-04-30T08:22:29.851Z,1.20
2018-04-30T08:24:57.484Z,0.80
2018-04-30T08:27:25.140Z,2.73
2018-04-30T08:29:52.795Z,0.97
2018-04-30T08:32:20.484Z,1.33
2018-04-30T08:34:48.133Z,1.73
2018-04-30T08:37:15.851Z,0.80
2018-04-30T08:39:43.525Z,1.43
2018-04-30T08:42:11.956Z,1.27
2018-04-30T08:44:39.630Z,1.43
2018-04-30T08:47:07.254Z,1.10
2018-04-30T08:49:34.924Z,1.87
2018-04-30T08:52:02.639Z,1.53
2018-04-30T08:54:30.301Z,1.70
2018-04-30T08:56:57.989Z,1.27
2018-04-30T08:59:25.653Z,1.63
2018-04-30T09:01:53.285Z,0.80
2018-04-30T09:04:21.654Z,1.80
2018-04-30T09:06:49.304Z,1.83
2018-04-30T09:09:17.717Z,2.33
2018-04-30T09:11:46.142Z,1.80
2018-04-30T09:14:13.847Z,2.40
2018-04-30T09:16:41.578Z,1.20
2018-04-30T09:19:09.241Z,1.20
2018-04-30T09:21:36.854Z,0.93
2018-04-30T09:24:04.574Z,1.67
2018-04-30T09:26:32.941Z,1.10
2018-04-30T09:29:00.582Z,1.40
2018-04-30T09:31:43.489Z,2.43
2018-04-30T09:34:11.377Z,1.20
2018-04-30T09:36:39.814Z,3.63
2018-04-30T09:39:07.414Z,1.50
2018-04-30T09:41:35.167Z,1.80
2018-04-30T09:44:02.917Z,1.00
2018-04-30T09:46:30.696Z,1.83
2018-04-30T09:48:59.260Z,1.60
2018-04-30T09:51:45.941Z,0.90
2018-04-30T09:54:13.941Z,0.90
2018-04-30T09:56:42.555Z,2.47
2018-04-30T09:59:10.434Z,2.53
2018-04-30T10:04:53.239Z,2.27
2018-04-30T10:10:19.296Z,0.87
2018-04-30T10:12:58.749Z,1.17
2018-04-30T10:15:26.417Z,0.80
2018-04-30T10:17:54.192Z,3.40
2018-04-30T10:20:21.784Z,2.60
2018-04-30T10:22:49.417Z,1.93
2018-04-30T10:25:17.877Z,1.33
2018-04-30T10:27:45.687Z,0.97
2018-04-30T10:30:13.336Z,2.23
2018-04-30T10:32:40.986Z,1.20
2018-04-30T10:35:08.622Z,2.70
2018-04-30T10:37:36.334Z,1.33
2018-04-30T10:40:04.829Z,1.07
2018-04-30T10:42:32.501Z,0.63
2018-04-30T10:45:00.159Z,1.00
2018-04-30T10:47:28.564Z,2.00
2018-04-30T10:49:56.979Z,1.17
2018-04-30T10:52:25.413Z,1.30
2018-04-30T10:54:53.093Z,0.93
2018-04-30T10:57:20.729Z,0.93
2018-04-30T10:59:48.406Z,0.83
2018-04-30T11:02:16.056Z,1.73
2018-04-30T11:04:43.713Z,0.70
2018-04-30T11:07:12.152Z,1.77
2018-04-30T11:09:39.830Z,0.97
2018-04-30T11:12:07.515Z,2.10
2018-04-30T11:14:35.856Z,1.30
2018-04-30T11:17:03.476Z,0.97
2018-04-30T11:19:31.052Z,2.70
2018-04-30T11:21:58.672Z,2.50
2018-04-30T11:24:27.010Z,1.47
2018-04-30T11:26:54.613Z,5.63
2018-04-30T11:29:22.209Z,0.67
2018-04-30T11:31:49.780Z,1.00
2018-04-30T11:34:17.377Z,0.50
2018-04-30T11:36:44.964Z,1.43
2018-04-30T11:39:12.859Z,0.60
2018-04-30T11:41:40.446Z,1.50
2018-04-30T11:44:08.061Z,0.73
2018-04-30T11:46:36.436Z,2.87
2018-04-30T11:49:04.064Z,1.17
2018-04-30T11:51:32.584Z,2.43
2018-04-30T11:54:00.316Z,1.23
2018-04-30T11:56:29.064Z,1.00
2018-04-30T11:58:58.611Z,1.40
2018-04-30T12:01:26.241Z,2.27
2018-04-30T12:03:53.851Z,0.63
2018-04-30T12:06:21.719Z,1.37
2018-04-30T12:08:49.357Z,0.57
2018-04-30T12:11:16.973Z,4.50
2018-04-30T12:13:44.870Z,0.50
2018-04-30T12:16:12.982Z,2.13
2018-04-30T12:18:40.924Z,2.63
2018-04-30T12:21:08.660Z,1.17
2018-04-30T12:23:36.311Z,1.33
2018-04-30T12:26:03.992Z,1.00
2018-04-30T12:28:31.678Z,0.37
2018-04-30T12:30:59.381Z,0.60
2018-04-30T12:33:27.070Z,1.83
2018-04-30T12:35:54.790Z,0.50
2018-04-30T12:38:23.215Z,1.43
2018-04-30T12:40:51.654Z,1.03
2018-04-30T12:43:19.658Z,0.90
2018-04-30T12:45:47.350Z,1.50
2018-04-30T12:48:15.009Z,1.17
2018-04-30T12:50:42.664Z,1.13
2018-04-30T12:53:10.326Z,0.70
2018-04-30T12:58:53.159Z,1.07
2018-04-30T13:01:20.829Z,3.07
2018-04-30T13:03:49.270Z,2.27
2018-04-30T13:06:16.930Z,1.83
2018-04-30T13:08:44.609Z,0.67
2018-04-30T13:11:12.266Z,0.70
2018-04-30T13:13:39.946Z,1.03
2018-04-30T13:16:07.893Z,1.80
2018-04-30T13:18:36.389Z,0.70
2018-04-30T13:21:04.068Z,0.80
2018-04-30T13:23:31.722Z,2.50
2018-04-30T13:26:00.149Z,0.50
2018-04-30T13:28:28.626Z,0.80
2018-04-30T13:30:56.243Z,0.50
2018-04-30T13:33:24.741Z,1.50
2018-04-30T13:36:00.982Z,1.37
2018-04-30T13:38:28.650Z,2.03
2018-04-30T13:43:51.060Z,2.07
2018-04-30T13:46:19.493Z,1.93
2018-04-30T13:48:47.164Z,0.83
2018-04-30T13:51:16.582Z,1.80
2018-04-30T13:53:44.260Z,1.40
2018-04-30T13:56:11.935Z,1.33
2018-04-30T13:58:39.630Z,3.43
2018-04-30T14:01:07.258Z,0.87
2018-04-30T14:03:35.699Z,0.90
2018-04-30T14:06:03.410Z,0.73
2018-04-30T14:08:31.042Z,1.47
2018-04-30T14:10:58.723Z,1.80
2018-04-30T14:13:26.372Z,1.33
2018-04-30T14:15:54.049Z,0.43
2018-04-30T14:18:21.696Z,0.70
2018-04-30T14:20:49.317Z,0.60
2018-04-30T14:23:17.778Z,0.80
2018-04-30T14:31:48.487Z,1.27
2018-04-30T14:34:16.247Z,0.83
2018-04-30T14:36:43.893Z,2.53
2018-04-30T14:39:12.336Z,2.13
2018-04-30T14:41:39.979Z,1.47
2018-04-30T14:44:07.633Z,1.83
2018-04-30T14:46:35.271Z,2.40
2018-04-30T14:49:02.982Z,0.50
2018-04-30T14:51:31.418Z,1.43
2018-04-30T14:53:59.060Z,2.53
2018-04-30T14:56:26.726Z,4.23
2018-04-30T14:58:54.382Z,0.60
2018-04-30T15:01:23.332Z,1.90
2018-04-30T15:03:50.974Z,0.70
2018-04-30T15:06:18.645Z,0.73
2018-04-30T15:08:46.734Z,2.93
2018-04-30T15:11:16.021Z,3.20
2018-04-30T15:13:43.718Z,0.60
2018-04-30T15:16:11.356Z,2.10
2018-04-30T15:18:39.137Z,2.03
2018-04-30T15:21:06.794Z,1.23
2018-04-30T15:23:34.473Z,0.60
2018-04-30T15:26:02.110Z,0.80
2018-04-30T15:28:29.740Z,1.20
2018-04-30T15:30:57.338Z,2.07
2018-04-30T15:33:25.290Z,0.87
2018-04-30T15:35:53.744Z,1.03
2018-04-30T15:38:21.430Z,0.60
2018-04-30T15:40:50.131Z,1.77
2018-04-30T15:43:18.011Z,2.27
2018-04-30T15:45:45.668Z,0.80
2018-04-30T15:48:14.091Z,3.40
2018-04-30T15:50:41.770Z,2.10
2018-04-30T15:53:10.166Z,2.43
2018-04-30T15:55:37.939Z,1.67
2018-04-30T15:58:05.634Z,1.33
2018-04-30T16:00:33.312Z,3.23
2018-04-30T16:03:01.026Z,1.57
2018-04-30T16:05:28.687Z,1.30
2018-04-30T16:07:56.381Z,1.53
2018-04-30T16:10:24.014Z,5.80
2018-04-30T16:12:51.698Z,1.43
2018-04-30T16:15:20.109Z,2.97
2018-04-30T16:17:47.764Z,0.90
2018-04-30T16:20:15.456Z,3.60
2018-04-30T16:22:43.078Z,3.33
2018-04-30T16:25:10.758Z,4.43
2018-04-30T16:27:39.137Z,2.93
2018-04-30T16:30:06.823Z,1.37
2018-04-30T16:32:34.810Z,1.73
2018-04-30T16:35:02.513Z,1.10
2018-04-30T16:37:30.149Z,2.73
2018-04-30T16:39:57.858Z,2.50
2018-04-30T16:42:25.555Z,0.70
2018-04-30T16:44:53.193Z,1.70
2018-04-30T16:47:21.674Z,0.83
2018-04-30T16:49:49.306Z,1.70
2018-04-30T16:52:17.030Z,2.50
2018-04-30T16:54:44.725Z,2.83
2018-04-30T16:57:12.366Z,1.93
2018-04-30T16:59:40.790Z,3.50
2018-04-30T17:02:08.436Z,0.40
2018-04-30T17:04:36.867Z,1.17
2018-04-30T17:07:04.502Z,2.93
2018-04-30T17:09:32.169Z,0.77
2018-04-30T17:11:59.810Z,1.00
2018-04-30T17:14:27.464Z,0.80
2018-04-30T17:17:15.694Z,2.00
2018-04-30T17:19:43.703Z,0.80
2018-04-30T17:22:11.513Z,0.67
2018-04-30T17:24:40.094Z,1.13
2018-04-30T17:27:07.753Z,0.60
2018-04-30T17:29:35.461Z,3.03
2018-04-30T17:32:03.134Z,0.83
2018-04-30T17:34:30.767Z,1.27
2018-04-30T17:37:00.473Z,1.80
2018-04-30T17:39:28.125Z,1.07
2018-04-30T17:41:56.564Z,1.67
2018-04-30T17:44:24.225Z,0.83
2018-04-30T17:46:52.010Z,1.63
2018-04-30T17:55:21.602Z,0.73
2018-04-30T17:57:49.326Z,0.87
2018-04-30T18:00:17.011Z,1.43
2018-04-30T18:08:31.991Z,4.87
2018-04-30T18:10:59.664Z,1.30
2018-04-30T18:13:27.371Z,0.70
2018-04-30T18:21:46.630Z,3.33
2018-04-30T18:24:14.273Z,2.03
2018-04-30T18:26:52.113Z,0.63
2018-04-30T18:29:19.829Z,0.70
2018-04-30T18:31:47.478Z,0.60
2018-04-30T18:34:15.129Z,0.87
2018-04-30T18:36:43.632Z,1.50
2018-04-30T18:39:12.418Z,3.97
2018-04-30T18:41:40.106Z,5.30
2018-04-30T18:44:09.172Z,0.30
2018-04-30T18:46:36.983Z,3.37
2018-04-30T18:49:04.794Z,0.60
2018-04-30T18:51:32.457Z,0.77
2018-04-30T18:54:00.155Z,0.57
2018-04-30T18:56:27.885Z,0.77
2018-04-30T18:58:55.544Z,1.97
2018-04-30T19:01:23.217Z,0.57
2018-04-30T19:03:50.882Z,3.00
2018-04-30T19:06:18.493Z,2.27
2018-04-30T19:08:46.177Z,0.97
2018-04-30T19:11:13.817Z,0.80
2018-04-30T19:13:42.277Z,0.83
2018-04-30T19:16:09.925Z,0.53
2018-04-30T19:18:37.602Z,0.70
2018-04-30T19:21:05.281Z,2.30
2018-04-30T19:23:32.919Z,1.90
2018-04-30T19:26:00.619Z,2.10
2018-04-30T19:28:28.241Z,0.73
2018-04-30T19:30:55.930Z,1.03
2018-04-30T19:33:24.372Z,2.20
2018-04-30T19:35:52.789Z,2.43
2018-04-30T19:38:21.225Z,1.07
2018-04-30T19:40:48.861Z,0.70
2018-04-30T19:43:16.509Z,2.10
2018-04-30T19:45:45.138Z,1.30
2018-04-30T19:48:12.778Z,0.90
2018-04-30T19:50:40.417Z,0.87
2018-04-30T19:53:08.093Z,1.57
2018-04-30T19:55:35.706Z,1.00
2018-04-30T19:58:04.188Z,1.20
2018-04-30T20:00:31.859Z,2.10
2018-04-30T20:02:59.518Z,1.40
2018-04-30T20:05:27.937Z,0.80
2018-04-30T20:07:55.610Z,1.13
2018-04-30T20:10:24.081Z,2.73
2018-04-30T20:12:51.708Z,0.73
2018-04-30T20:15:20.123Z,1.70
2018-04-30T20:17:47.758Z,0.80
2018-04-30T20:20:15.453Z,0.70
2018-04-30T20:22:43.085Z,1.60
2018-04-30T20:25:11.533Z,0.90
2018-04-30T20:27:39.201Z,1.23
2018-04-30T20:30:06.861Z,0.77
2018-04-30T20:32:46.640Z,0.57
2018-04-30T20:35:15.306Z,0.60
2018-04-30T20:37:42.976Z,0.87
2018-04-30T20:40:10.621Z,0.80
2018-04-30T20:42:39.069Z,0.50
2018-04-30T20:45:07.128Z,2.10
2018-04-30T20:47:35.082Z,1.23
2018-04-30T20:50:02.777Z,0.70
2018-04-30T20:52:30.423Z,0.70
2018-04-30T20:54:58.076Z,1.17
2018-04-30T20:57:25.710Z,1.67
2018-04-30T20:59:53.371Z,0.73
2018-04-30T21:02:21.798Z,0.67
2018-04-30T21:10:37.305Z,1.40
2018-04-30T21:13:04.966Z,1.37
2018-04-30T21:15:32.620Z,0.57
2018-04-30T21:18:00.273Z,1.20
2018-04-30T21:20:27.918Z,2.00
2018-04-30T21:26:12.513Z,2.30
2018-04-30T21:28:40.191Z,1.00
2018-04-30T21:31:07.821Z,1.00
2018-04-30T21:33:35.505Z,1.53
2018-04-30T21:36:03.503Z,0.60
2018-04-30T21:38:31.164Z,1.27
2018-04-30T21:40:58.859Z,1.60
2018-04-30T21:43:26.486Z,2.43
2018-04-30T21:45:54.925Z,0.70
2018-04-30T21:48:22.562Z,0.97
2018-04-30T21:50:50.215Z,0.93
2018-04-30T21:53:17.853Z,0.97
2018-04-30T21:55:46.272Z,2.23
2018-04-30T21:58:13.913Z,2.37
2018-04-30T22:00:41.593Z,2.30
2018-04-30T22:03:09.281Z,1.20
2018-04-30T22:05:36.973Z,3.13
2018-04-30T22:08:04.629Z,3.63
2018-04-30T22:10:32.353Z,2.37
2018-04-30T22:13:00.063Z,1.30
2018-04-30T22:15:27.706Z,1.00
2018-04-30T22:17:55.377Z,1.00
2018-04-30T22:20:23.005Z,1.87
2018-04-30T22:22:50.665Z,1.00
2018-04-30T22:25:18.331Z,1.53
2018-04-30T22:27:46.013Z,1.70
2018-04-30T22:30:13.673Z,2.40
2018-04-30T22:32:42.081Z,0.77
2018-04-30T22:35:10.514Z,1.60
2018-04-30T22:37:38.137Z,0.87
2018-04-30T22:40:05.802Z,3.20
2018-04-30T22:42:33.461Z,1.90
2018-04-30T22:45:01.116Z,3.67
2018-04-30T22:47:28.806Z,1.13
2018-04-30T22:49:56.430Z,2.43
2018-04-30T22:52:24.073Z,1.93
2018-04-30T22:54:51.722Z,2.50
2018-04-30T22:57:19.424Z,3.00
2018-04-30T22:59:47.820Z,1.90
2018-04-30T23:02:15.463Z,2.50
2018-04-30T23:04:43.880Z,1.20
2018-04-30T23:07:11.505Z,1.30
2018-04-30T23:09:39.227Z,2.20
2018-04-30T23:12:06.919Z,1.57
2018-04-30T23:14:35.317Z,1.50
2018-04-30T23:17:03.774Z,1.00
2018-04-30T23:19:31.409Z,2.37
2018-04-30T23:21:59.071Z,1.43
2018-04-30T23:24:26.705Z,1.83
2018-04-30T23:26:55.102Z,1.40
2018-04-30T23:29:22.753Z,2.03
2018-04-30T23:31:50.395Z,1.70
2018-04-30T23:34:18.817Z,1.70
2018-04-30T23:36:46.489Z,2.13
2018-04-30T23:39:14.135Z,2.00
2018-04-30T23:41:41.785Z,1.33
2018-04-30T23:44:09.497Z,2.03
2018-04-30T23:46:37.146Z,0.90
2018-04-30T23:49:04.819Z,0.93
2018-04-30T23:51:32.611Z,1.23
2018-04-30T23:54:00.247Z,1.27
2018-04-30T23:56:28.093Z,2.17
2018-04-30T23:58:55.721Z,1.53
